Time;durP1;ratioP1;P1;durP2;ratioP2;P2;SDS_P1;SDS_P2;PMS_P1;PMS_P2;Temp;Humidity;BMP_temperature;BMP_pressure;BME280_temperature;BME280_humidity;BME280_pressure;Samples;Min_cycle;Max_cycle;Signal;HPM_P1;HPM_P2
2022/07/17 00:00:05;;;;;;;5.80;2.90;;;;;;;15.36;64.46;100704.27;1661696;85;21239;-57
2022/07/17 00:03:11;;;;;;;5.80;3.22;;;;;;;15.30;64.44;100703.66;1679709;85;21215;-56
2022/07/17 00:06:18;;;;;;;5.12;3.35;;;;;;;15.27;64.45;100704.61;1694993;84;21246;-57
2022/07/17 00:09:26;;;;;;;6.65;3.77;;;;;;;15.24;64.67;100707.22;1679423;85;21256;-56
2022/07/17 00:12:33;;;;;;;4.85;3.45;;;;;;;15.24;64.89;100708.59;1688598;85;21223;-56
2022/07/17 00:15:42;;;;;;;4.45;3.17;;;;;;;15.23;64.94;100718.45;1687844;85;21196;-56
2022/07/17 00:18:49;;;;;;;6.78;3.22;;;;;;;15.20;65.02;100716.95;1690144;84;21284;-56
2022/07/17 00:21:55;;;;;;;5.55;2.83;;;;;;;15.16;64.97;100717.01;1690057;84;21275;-56
2022/07/17 00:25:01;;;;;;;5.10;3.00;;;;;;;15.10;64.93;100723.31;1679959;85;21564;-57
2022/07/17 00:28:07;;;;;;;7.90;3.50;;;;;;;15.07;65.07;100722.85;1693514;85;21409;-57
2022/07/17 00:31:13;;;;;;;4.87;3.45;;;;;;;15.06;65.24;100722.02;1677710;85;21284;-56
2022/07/17 00:34:19;;;;;;;7.42;3.42;;;;;;;15.03;65.26;100721.87;1675832;85;21201;-56
2022/07/17 00:37:25;;;;;;;4.75;3.02;;;;;;;15.01;65.28;100721.75;1678276;85;21232;-56
2022/07/17 00:40:31;;;;;;;6.97;3.25;;;;;;;14.99;65.34;100727.45;1677794;85;21236;-56
2022/07/17 00:43:39;;;;;;;8.08;2.83;;;;;;;14.98;65.45;100724.36;1678330;85;21215;-56
2022/07/17 00:46:45;;;;;;;6.25;2.98;;;;;;;14.98;65.62;100724.36;1677928;85;21209;-56
2022/07/17 00:49:53;;;;;;;9.68;3.70;;;;;;;14.94;65.62;100718.91;1684645;85;21245;-56
2022/07/17 00:53:02;;;;;;;8.40;3.45;;;;;;;14.94;65.74;100718.05;1687240;82;21415;-56
2022/07/17 00:56:11;;;;;;;7.17;3.10;;;;;;;14.95;65.96;100715.64;1665973;85;21219;-56
2022/07/17 00:59:18;;;;;;;7.25;3.47;;;;;;;14.98;66.11;100715.25;1651104;86;21218;-56
2022/07/17 01:02:24;;;;;;;6.53;3.45;;;;;;;14.99;66.21;100712.81;1649369;86;21285;-55
2022/07/17 01:05:31;;;;;;;5.30;3.60;;;;;;;15.00;66.27;100700.72;1649220;86;21215;-56
2022/07/17 01:08:40;;;;;;;6.08;3.50;;;;;;;15.01;66.39;100692.25;1649195;86;21270;-55
2022/07/17 01:11:45;;;;;;;5.65;3.72;;;;;;;15.02;66.42;100691.73;1649513;86;21280;-55
2022/07/17 01:14:50;;;;;;;5.45;4.03;;;;;;;14.98;66.32;100683.00;1649212;86;21272;-56
2022/07/17 01:17:56;;;;;;;6.65;3.70;;;;;;;14.94;66.29;100677.56;1649536;86;21248;-55
2022/07/17 01:21:03;;;;;;;4.22;3.58;;;;;;;14.88;66.26;100674.73;1648977;86;21240;-56
2022/07/17 01:24:10;;;;;;;6.90;4.22;;;;;;;14.85;66.30;100680.64;1638189;85;21219;-57
2022/07/17 01:27:17;;;;;;;5.17;3.72;;;;;;;14.82;66.35;100683.80;1658104;86;21244;-56
2022/07/17 01:30:23;;;;;;;4.30;3.58;;;;;;;14.80;66.44;100687.27;1655614;86;21196;-56
2022/07/17 01:33:32;;;;;;;6.30;3.67;;;;;;;14.78;66.54;100686.59;1651069;86;21243;-56
2022/07/17 01:36:39;;;;;;;4.87;3.35;;;;;;;14.74;66.65;100690.81;1670571;85;21236;-56
2022/07/17 01:39:53;;;;;;;7.22;3.33;;;;;;;14.72;66.66;100687.39;1624813;87;21575;-56
2022/07/17 01:42:55;;;;;;;4.35;3.27;;;;;;;14.68;66.62;100691.59;1679926;84;21240;-56
2022/07/17 01:46:01;;;;;;;6.50;3.55;;;;;;;14.64;66.53;100681.99;1667874;85;21203;-56
2022/07/17 01:49:08;;;;;;;5.78;3.17;;;;;;;14.58;66.46;100680.89;1665434;86;21295;-56
2022/07/17 01:52:13;;;;;;;7.72;3.58;;;;;;;14.54;66.55;100685.06;1650354;85;21247;-56
2022/07/17 01:55:20;;;;;;;3.80;2.80;;;;;;;14.51;66.57;100688.72;1666299;85;21211;-56
2022/07/17 01:58:28;;;;;;;4.30;3.12;;;;;;;14.48;66.62;100690.48;1665517;86;21200;-57
2022/07/17 02:01:33;;;;;;;5.22;3.58;;;;;;;14.43;66.73;100688.86;1649614;86;21287;-56
2022/07/17 02:04:43;;;;;;;8.33;3.90;;;;;;;14.45;66.97;100693.63;1648994;86;21196;-56
2022/07/17 02:07:50;;;;;;;7.10;3.92;;;;;;;14.46;67.13;100695.36;1649457;86;21243;-56
2022/07/17 02:10:56;;;;;;;6.20;4.00;;;;;;;14.46;67.21;100688.47;1649052;86;21201;-55
2022/07/17 02:14:02;;;;;;;10.00;3.50;;;;;;;14.45;67.23;100684.86;1649224;86;21209;-56
2022/07/17 02:17:07;;;;;;;4.20;3.08;;;;;;;14.45;67.14;100682.61;1649141;86;21308;-56
2022/07/17 02:20:15;;;;;;;5.17;3.50;;;;;;;14.43;67.12;100684.19;1671926;85;21275;-56
2022/07/17 02:23:20;;;;;;;6.25;3.80;;;;;;;14.41;67.15;100677.17;1663975;86;21227;-56
2022/07/17 02:26:27;;;;;;;10.05;3.67;;;;;;;14.42;67.28;100668.72;1659681;86;21328;-56
2022/07/17 02:29:34;;;;;;;6.22;3.90;;;;;;;14.47;67.41;100674.50;1636832;87;21247;-55
2022/07/17 02:32:40;;;;;;;6.70;3.60;;;;;;;14.50;67.53;100672.73;1643353;86;21316;-56
2022/07/17 02:35:47;;;;;;;5.12;3.60;;;;;;;14.53;67.60;100673.72;1662394;85;21212;-56
2022/07/17 02:38:52;;;;;;;5.40;3.47;;;;;;;14.56;67.56;100669.71;1638979;87;21195;-56
2022/07/17 02:41:58;;;;;;;6.60;3.45;;;;;;;14.58;67.54;100675.38;1637428;87;21305;-56
2022/07/17 02:45:06;;;;;;;6.45;3.45;;;;;;;14.64;67.78;100665.46;1622896;88;21268;-56
2022/07/17 02:48:12;;;;;;;5.30;3.62;;;;;;;14.73;67.98;100664.31;1648534;87;21244;-55
2022/07/17 02:51:12;;;;;;;8.50;3.05;;;;;;;14.79;68.01;100661.59;1673277;85;21385;-55
2022/07/17 02:54:05;;;;;;;8.05;3.00;;;;;;;14.90;68.14;100654.73;1663900;86;21211;-55
2022/07/17 02:57:10;;;;;;;8.25;3.40;;;;;;;14.97;68.13;100658.38;1690250;83;21225;-56
2022/07/17 03:00:18;;;;;;;6.37;3.08;;;;;;;14.99;68.00;100653.02;1631922;87;21225;-55
2022/07/17 03:03:24;;;;;;;4.62;2.62;;;;;;;15.04;68.00;100649.66;1647852;86;21300;-56
2022/07/17 03:06:29;;;;;;;4.83;2.70;;;;;;;15.16;68.16;100648.61;1647623;86;21295;-56
2022/07/17 03:09:35;;;;;;;5.12;3.08;;;;;;;15.29;68.23;100655.08;1636982;86;21267;-56
2022/07/17 03:12:41;;;;;;;4.67;3.00;;;;;;;15.43;68.29;100646.43;1664483;86;21404;-56
2022/07/17 03:15:50;;;;;;;4.83;3.15;;;;;;;15.52;68.13;100643.32;1658734;86;21225;-55
2022/07/17 03:18:56;;;;;;;8.33;3.25;;;;;;;15.59;68.07;100652.48;1677764;85;21256;-56
2022/07/17 03:22:02;;;;;;;7.22;3.10;;;;;;;15.72;68.13;100651.20;1663462;86;21263;-56
2022/07/17 03:25:10;;;;;;;8.10;3.00;;;;;;;15.86;68.09;100650.22;1647371;85;21230;-56
2022/07/17 03:28:16;;;;;;;7.08;2.77;;;;;;;16.03;68.14;100647.98;1647450;86;21225;-55
2022/07/17 03:31:25;;;;;;;4.20;3.00;;;;;;;16.21;68.22;100646.38;1648028;86;21288;-55
2022/07/17 03:34:33;;;;;;;4.47;2.65;;;;;;;16.38;68.30;100643.56;1648029;86;21342;-55
2022/07/17 03:37:39;;;;;;;7.12;2.87;;;;;;;16.57;68.37;100639.19;1677759;85;21221;-56
2022/07/17 03:40:46;;;;;;;3.70;2.60;;;;;;;16.74;68.28;100645.19;1676768;85;21389;-56
2022/07/17 03:43:52;;;;;;;4.15;2.80;;;;;;;16.90;68.31;100651.20;1676441;85;21269;-56
2022/07/17 03:47:01;;;;;;;4.40;2.52;;;;;;;17.03;68.15;100659.49;1677131;85;21378;-55
2022/07/17 03:50:06;;;;;;;5.35;2.70;;;;;;;17.10;67.96;100665.90;1676951;85;21240;-55
2022/07/17 03:53:12;;;;;;;6.75;2.62;;;;;;;17.17;67.84;100663.97;1676831;85;21371;-55
2022/07/17 03:56:19;;;;;;;4.37;2.50;;;;;;;17.22;67.73;100659.22;1685996;83;21261;-55
2022/07/17 03:59:27;;;;;;;4.97;2.62;;;;;;;17.30;67.74;100656.23;1706262;83;21217;-55
2022/07/17 04:02:34;;;;;;;7.92;2.77;;;;;;;17.44;67.83;100644.96;1705909;83;21236;-57
2022/07/17 04:05:40;;;;;;;3.87;2.52;;;;;;;17.60;67.83;100654.77;1706300;83;21805;-57
2022/07/17 04:08:47;;;;;;;6.08;2.90;;;;;;;17.73;67.83;100654.20;1685105;83;21201;-57
2022/07/17 04:11:53;;;;;;;5.87;2.75;;;;;;;17.82;67.74;100660.37;1705773;83;21236;-55
2022/07/17 04:15:02;;;;;;;4.97;2.67;;;;;;;17.89;67.73;100672.28;1706225;83;21200;-55
2022/07/17 04:18:09;;;;;;;6.67;2.58;;;;;;;17.95;67.63;100681.10;1705726;83;21884;-55
2022/07/17 04:21:16;;;;;;;16.30;3.27;;;;;;;18.01;67.54;100681.64;1657646;85;21770;-55
2022/07/17 04:24:22;;;;;;;6.22;2.70;;;;;;;18.08;67.48;100688.01;1676313;85;21232;-55
2022/07/17 04:27:30;;;;;;;6.72;2.52;;;;;;;18.16;67.55;100693.31;1675939;85;21221;-55
2022/07/17 04:30:38;;;;;;;8.58;2.80;;;;;;;18.27;67.65;100693.16;1676423;85;21256;-54
2022/07/17 04:33:52;;;;;;;9.30;2.95;;;;;;;18.31;67.73;100710.55;1676559;85;21212;-54
2022/07/17 04:36:57;;;;;;;6.40;3.00;;;;;;;18.30;67.68;100730.18;1664584;86;21533;-57
2022/07/17 04:40:05;;;;;;;3.80;2.95;;;;;;;18.18;67.59;100727.21;1688050;85;21212;-55
2022/07/17 04:43:14;;;;;;;4.67;2.77;;;;;;;18.11;67.70;100736.06;1708967;84;21228;-55
2022/07/17 04:46:20;;;;;;;7.70;2.80;;;;;;;18.09;67.75;100746.53;1693655;85;21231;-55
2022/07/17 04:49:30;;;;;;;3.47;2.60;;;;;;;18.07;67.78;100738.96;1719840;83;21221;-58
2022/07/17 04:52:37;;;;;;;4.62;2.50;;;;;;;18.05;67.82;100745.24;1706126;84;21236;-60
2022/07/17 04:55:43;;;;;;;4.72;2.50;;;;;;;18.07;67.80;100740.87;1707117;83;21733;-59
2022/07/17 04:58:52;;;;;;;6.78;2.52;;;;;;;18.08;67.80;100731.48;1705809;82;21500;-59
2022/07/17 05:02:00;;;;;;;4.25;2.50;;;;;;;18.07;67.86;100747.80;1708098;84;21366;-59
2022/07/17 05:05:07;;;;;;;4.53;2.35;;;;;;;18.10;67.87;100741.81;1708341;83;21307;-59
2022/07/17 05:08:13;;;;;;;6.78;2.50;;;;;;;18.12;67.87;100750.26;1666984;85;21208;-59
2022/07/17 05:11:21;;;;;;;4.62;2.40;;;;;;;18.15;67.87;100749.82;1651682;86;21248;-59
2022/07/17 05:14:29;;;;;;;4.17;2.67;;;;;;;18.20;67.93;100753.33;1649889;86;21218;-59
2022/07/17 05:17:35;;;;;;;6.25;2.83;;;;;;;18.25;67.95;100752.97;1664054;86;21283;-59
2022/07/17 05:20:42;;;;;;;3.80;2.55;;;;;;;18.31;67.89;100750.75;1664299;85;21539;-60
2022/07/17 05:23:52;;;;;;;5.58;3.02;;;;;;;18.37;67.91;100748.48;1668236;85;21248;-59
2022/07/17 05:26:58;;;;;;;8.90;3.77;;;;;;;18.40;67.79;100755.02;1686614;85;21278;-58
2022/07/17 05:30:05;;;;;;;5.50;3.05;;;;;;;18.41;67.75;100760.86;1669558;85;21385;-57
2022/07/17 05:33:13;;;;;;;4.53;3.05;;;;;;;18.40;67.77;100759.70;1709081;83;21224;-59
2022/07/17 05:36:22;;;;;;;8.95;2.75;;;;;;;18.41;67.79;100755.32;1687549;84;21232;-59
2022/07/17 05:39:31;;;;;;;5.67;2.85;;;;;;;18.46;67.84;100764.36;1678678;84;21239;-58
2022/07/17 05:42:37;;;;;;;5.35;2.83;;;;;;;18.50;67.88;100769.28;1681780;84;21302;-58
2022/07/17 05:45:45;;;;;;;4.17;2.75;;;;;;;18.52;67.79;100772.67;1669839;86;21272;-59
2022/07/17 05:48:54;;;;;;;4.42;2.90;;;;;;;18.52;67.78;100776.83;1672569;84;21193;-58
2022/07/17 05:52:02;;;;;;;5.20;3.22;;;;;;;18.53;67.77;100775.78;1700165;84;21702;-59
2022/07/17 05:55:14;;;;;;;4.78;3.42;;;;;;;18.52;67.77;100771.28;1689766;84;21252;-58
2022/07/17 05:58:25;;;;;;;6.47;3.35;;;;;;;18.58;67.89;100780.14;1726832;81;21189;-59
2022/07/17 06:01:34;;;;;;;6.22;3.25;;;;;;;18.66;67.90;100779.87;1756712;81;21216;-58
2022/07/17 06:04:41;;;;;;;6.05;3.08;;;;;;;18.73;67.89;100778.47;1756414;81;21211;-58
2022/07/17 06:07:50;;;;;;;5.78;2.90;;;;;;;18.77;67.81;100790.31;1755924;81;21211;-58
2022/07/17 06:10:57;;;;;;;5.37;2.90;;;;;;;18.78;67.73;100791.15;1756286;81;21172;-57
2022/07/17 06:14:04;;;;;;;7.97;2.80;;;;;;;18.68;67.62;100801.88;1756787;81;21688;-59
2022/07/17 06:17:14;;;;;;;5.10;2.30;;;;;;;18.55;67.57;100836.56;1756872;81;21227;-59
2022/07/17 06:20:21;;;;;;;4.87;2.70;;;;;;;18.40;67.50;100817.39;1756709;81;21203;-58
2022/07/17 06:23:30;;;;;;;4.47;2.52;;;;;;;18.30;67.62;100799.48;1756383;81;21385;-57
2022/07/17 06:26:39;;;;;;;4.62;2.33;;;;;;;18.31;67.82;100810.87;1756812;81;21212;-58
2022/07/17 06:29:50;;;;;;;2.47;1.90;;;;;;;18.35;67.88;100800.52;1748331;81;21339;-57
2022/07/17 06:32:56;;;;;;;4.65;1.90;;;;;;;18.38;67.81;100818.13;1724454;83;21247;-56
2022/07/17 06:36:03;;;;;;;2.75;2.10;;;;;;;18.24;67.57;100810.88;1726823;83;21375;-58
2022/07/17 06:39:12;;;;;;;3.08;1.90;;;;;;;18.10;67.61;100821.66;1715028;83;21223;-59
2022/07/17 06:42:17;;;;;;;4.58;2.30;;;;;;;18.06;67.70;100825.07;1697864;84;21275;-59
2022/07/17 06:45:31;;;;;;;5.87;2.10;;;;;;;18.02;67.74;100812.17;1705176;81;21222;-59
2022/07/17 06:48:38;;;;;;;5.30;1.92;;;;;;;18.03;67.82;100805.55;1727941;83;21263;-58
2022/07/17 06:51:45;;;;;;;2.80;2.00;;;;;;;18.09;67.85;100810.27;1725953;83;21235;-59
2022/07/17 06:54:53;;;;;;;2.35;1.72;;;;;;;18.09;67.81;100808.02;1727850;83;21366;-58
2022/07/17 06:58:00;;;;;;;2.90;2.00;;;;;;;18.05;67.75;100817.80;1726606;83;21243;-57
2022/07/17 07:01:07;;;;;;;3.50;2.20;;;;;;;18.00;67.74;100819.84;1725551;82;22316;-58
2022/07/17 07:04:23;;;;;;;3.15;1.90;;;;;;;17.99;67.84;100825.06;1728071;83;21216;-59
2022/07/17 07:07:36;;;;;;;2.47;1.72;;;;;;;18.05;67.88;100823.34;1725546;83;21338;-57
2022/07/17 07:10:46;;;;;;;2.77;1.70;;;;;;;17.97;67.74;100841.05;1726173;83;21220;-56
2022/07/17 07:13:55;;;;;;;2.67;1.70;;;;;;;17.93;67.79;100848.09;1728239;83;21215;-56
2022/07/17 07:17:05;;;;;;;4.50;1.85;;;;;;;17.85;67.75;100847.73;1726139;81;21235;-56
2022/07/17 07:20:22;;;;;;;2.17;1.50;;;;;;;17.72;67.72;100835.28;1726800;83;21338;-56
2022/07/17 07:23:30;;;;;;;4.35;1.60;;;;;;;17.67;67.79;100828.66;1726769;83;21200;-57
2022/07/17 07:26:43;;;;;;;2.00;1.47;;;;;;;17.59;67.80;100835.78;1726983;83;21353;-55
2022/07/17 07:29:51;;;;;;;2.27;1.60;;;;;;;17.54;67.88;100834.17;1686945;84;21204;-56
2022/07/17 07:33:01;;;;;;;2.00;1.40;;;;;;;17.53;67.95;100829.70;1686145;85;21244;-55
2022/07/17 07:36:11;;;;;;;1.80;1.40;;;;;;;17.56;68.03;100823.22;1685941;85;21354;-56
2022/07/17 07:39:28;;;;;;;2.25;1.60;;;;;;;17.56;68.14;100826.52;1686138;84;21279;-56
2022/07/17 07:42:40;;;;;;;3.42;1.60;;;;;;;17.54;68.14;100830.88;1686173;84;21366;-56
2022/07/17 07:45:49;;;;;;;2.67;1.57;;;;;;;17.47;68.03;100846.60;1715394;81;21244;-55
2022/07/17 07:48:55;;;;;;;3.02;1.60;;;;;;;17.38;68.07;100845.59;1659002;86;21216;-55
2022/07/17 07:52:01;;;;;;;3.35;1.40;;;;;;;17.33;68.15;100855.91;1744145;81;21192;-56
2022/07/17 07:55:11;;;;;;;2.98;1.50;;;;;;;17.41;68.33;100854.89;1715370;83;21322;-54
2022/07/17 07:58:22;;;;;;;2.90;1.72;;;;;;;17.55;68.44;100853.89;1739123;82;21228;-55
2022/07/17 08:01:32;;;;;;;1.62;1.40;;;;;;;17.68;68.42;100855.27;1739143;82;21217;-55
2022/07/17 08:04:46;;;;;;;2.47;1.60;;;;;;;17.71;68.29;100856.27;1741086;82;21178;-55
2022/07/17 08:07:58;;;;;;;2.12;1.52;;;;;;;17.77;68.35;100862.34;1714405;82;21244;-55
2022/07/17 08:11:06;;;;;;;2.30;1.52;;;;;;;17.84;68.15;100853.49;1667148;85;21241;-56
2022/07/17 08:14:16;;;;;;;1.60;1.15;;;;;;;17.85;68.06;100845.52;1721101;83;21236;-56
2022/07/17 08:17:26;;;;;;;1.92;1.32;;;;;;;17.83;67.89;100842.11;1721079;83;21389;-55
2022/07/17 08:20:34;;;;;;;2.75;1.47;;;;;;;17.70;67.78;100851.77;1720082;83;21230;-55
2022/07/17 08:23:42;;;;;;;2.15;1.52;;;;;;;17.57;67.78;100853.13;1720021;83;21350;-55
2022/07/17 08:26:51;;;;;;;2.92;1.50;;;;;;;17.51;67.93;100868.67;1720847;83;21303;-56
2022/07/17 08:29:57;;;;;;;1.35;1.25;;;;;;;17.46;68.04;100875.36;1719909;83;21220;-56
2022/07/17 08:33:06;;;;;;;3.33;1.20;;;;;;;17.44;68.09;100869.69;1719124;82;21231;-57
2022/07/17 08:36:16;;;;;;;2.30;1.45;;;;;;;17.40;68.14;100873.92;1719388;83;21807;-57
2022/07/17 08:39:29;;;;;;;1.45;1.30;;;;;;;17.39;68.18;100876.38;1719642;83;21318;-56
2022/07/17 08:42:42;;;;;;;2.33;1.52;;;;;;;17.41;68.30;100872.33;1719012;83;21858;-56
2022/07/17 08:45:47;;;;;;;2.83;1.40;;;;;;;17.44;68.32;100887.16;1719961;83;21769;-57
2022/07/17 08:48:54;;;;;;;1.55;1.40;;;;;;;17.43;68.38;100895.64;1718091;83;21220;-57
2022/07/17 08:52:04;;;;;;;3.17;1.67;;;;;;;17.49;68.51;100885.19;1720439;83;21385;-57
2022/07/17 08:55:22;;;;;;;4.42;1.75;;;;;;;17.55;68.54;100874.09;1720687;83;21308;-58
2022/07/17 08:58:32;;;;;;;1.90;1.40;;;;;;;17.63;68.52;100876.67;1720236;83;21863;-58
2022/07/17 09:01:41;;;;;;;2.52;1.60;;;;;;;17.70;68.42;100883.63;1720898;83;21271;-56
2022/07/17 09:04:48;;;;;;;2.00;1.65;;;;;;;17.68;68.34;100878.81;1688618;85;21224;-57
2022/07/17 09:07:56;;;;;;;1.98;1.47;;;;;;;17.65;68.22;100859.85;1686471;85;21623;-57
2022/07/17 09:11:04;;;;;;;4.10;1.60;;;;;;;17.65;68.12;100862.62;1686213;84;21742;-57
2022/07/17 09:14:17;;;;;;;2.90;1.77;;;;;;;17.68;68.24;100842.81;1686425;84;21192;-58
2022/07/17 09:17:28;;;;;;;2.35;1.77;;;;;;;17.75;68.40;100825.69;1677554;84;21212;-58
2022/07/17 09:20:37;;;;;;;2.10;1.55;;;;;;;17.82;68.54;100805.23;1686771;84;21284;-58
2022/07/17 09:23:46;;;;;;;2.40;1.60;;;;;;;17.95;68.62;100800.78;1686781;85;21208;-59
2022/07/17 09:26:53;;;;;;;3.00;1.77;;;;;;;18.06;68.76;100796.81;1686368;85;21216;-58
2022/07/17 09:30:18;;;;;;;2.52;1.80;;;;;;;18.17;68.56;100816.11;1686427;85;21243;-57
2022/07/17 09:33:29;;;;;;;1.87;1.50;;;;;;;18.21;68.38;100808.53;1686468;85;21263;-56
2022/07/17 09:36:37;;;;;;;3.55;1.80;;;;;;;18.26;68.39;100774.10;1686617;85;21248;-57
2022/07/17 09:39:44;;;;;;;2.25;1.75;;;;;;;18.30;68.45;100747.64;1686863;85;21216;-56
2022/07/17 09:42:53;;;;;;;2.27;1.30;;;;;;;18.28;68.36;100769.20;1686604;85;21260;-57
2022/07/17 09:45:59;;;;;;;2.42;1.47;;;;;;;18.28;68.27;100784.97;1686204;85;21266;-57
2022/07/17 09:49:13;;;;;;;1.50;1.20;;;;;;;18.27;68.07;100792.42;1686453;85;21296;-55
2022/07/17 09:52:26;;;;;;;4.65;1.70;;;;;;;18.22;68.09;100780.30;1686515;85;21287;-57
2022/07/17 09:55:38;;;;;;;5.17;3.83;;;;;;;18.30;68.29;100788.39;1705812;84;21283;-56
2022/07/17 09:58:54;;;;;;;2.85;1.55;;;;;;;18.42;68.37;100795.86;1685150;85;21295;-58
2022/07/17 10:02:01;;;;;;;3.58;1.60;;;;;;;18.56;68.46;100802.20;1686913;84;21236;-59
2022/07/17 10:05:09;;;;;;;3.08;1.62;;;;;;;18.66;68.43;100799.84;1670092;83;21255;-58
2022/07/17 10:08:16;;;;;;;5.83;2.87;;;;;;;18.78;68.35;100788.38;1685888;85;21197;-58
2022/07/17 10:11:29;;;;;;;3.17;2.22;;;;;;;18.83;68.14;100786.66;1686049;85;21453;-54
2022/07/17 10:14:41;;;;;;;2.50;1.80;;;;;;;18.99;68.17;100780.62;1686349;85;21192;-57
2022/07/17 10:17:47;;;;;;;2.00;1.30;;;;;;;19.25;68.28;100772.13;1685774;85;21777;-57
2022/07/17 10:20:55;;;;;;;2.92;1.80;;;;;;;19.49;68.19;100778.84;1686029;85;21367;-58
2022/07/17 10:24:07;;;;;;;4.08;2.10;;;;;;;19.72;68.10;100778.26;1668056;83;21266;-54
2022/07/17 10:27:18;;;;;;;;;;;;;;;19.96;68.20;100763.53;1640670;86;21236;-54
2022/07/17 10:30:37;;;;;;;3.85;2.20;;;;;;;20.13;67.95;100771.59;1624315;86;20536;-56
2022/07/17 10:33:46;;;;;;;1.92;1.35;;;;;;;20.24;68.02;100772.27;1655413;86;21746;-55
2022/07/17 10:36:53;;;;;;;2.47;1.70;;;;;;;20.32;67.76;100762.23;1655155;86;21232;-56
2022/07/17 10:40:08;;;;;;;3.02;1.50;;;;;;;20.32;67.72;100758.06;1654697;86;21229;-55
2022/07/17 10:43:16;;;;;;;2.10;1.32;;;;;;;20.43;68.02;100760.95;1646342;84;21246;-56
2022/07/17 10:46:24;;;;;;;2.42;1.10;;;;;;;20.56;68.16;100753.84;1622106;88;21291;-56
2022/07/17 10:49:35;;;;;;;1.35;1.25;;;;;;;20.62;68.08;100754.84;1622776;88;21276;-56
2022/07/17 10:52:42;;;;;;;1.37;1.07;;;;;;;20.70;68.05;100744.26;1623532;88;21304;-57
2022/07/17 10:56:05;;;;;;;1.45;1.22;;;;;;;20.73;67.84;100740.14;1629450;88;21304;-56
2022/07/17 10:59:20;;;;;;;2.02;1.25;;;;;;;20.71;67.78;100745.94;1630127;87;21255;-56
2022/07/17 11:02:39;;;;;;;1.82;1.20;;;;;;;20.77;67.84;100744.17;1630596;87;21236;-56
2022/07/17 11:05:50;;;;;;;1.80;1.20;;;;;;;20.89;68.10;100742.30;1651171;82;21649;-56
2022/07/17 11:09:04;;;;;;;;;;;;;;;20.95;68.12;100732.17;1661481;86;21275;-57
2022/07/17 11:12:10;;;;;;;2.12;1.22;;;;;;;21.07;68.22;100741.45;1658910;85;20566;-58
2022/07/17 11:15:23;;;;;;;2.02;1.40;;;;;;;21.23;68.37;100740.23;1659162;86;21226;-57
2022/07/17 11:18:32;;;;;;;2.60;1.57;;;;;;;21.40;68.35;100738.50;1661337;84;21221;-58
2022/07/17 11:21:43;;;;;;;1.45;1.30;;;;;;;21.54;68.36;100738.59;1688911;83;21894;-58
2022/07/17 11:24:56;;;;;;;3.60;1.40;;;;;;;21.71;68.36;100742.37;1690323;85;21216;-58
2022/07/17 11:28:03;;;;;;;1.77;1.30;;;;;;;21.85;68.27;100748.06;1688076;83;21248;-58
2022/07/17 11:31:31;;;;;;;2.58;1.47;;;;;;;21.97;67.93;100745.30;1689809;84;21354;-58
2022/07/17 11:34:39;;;;;;;1.70;1.10;;;;;;;22.01;67.62;100743.17;1674390;85;21228;-57
2022/07/17 11:37:48;;;;;;;2.25;1.77;;;;;;;22.09;67.48;100734.45;1689605;85;21260;-57
2022/07/17 11:40:59;;;;;;;2.20;1.52;;;;;;;22.20;67.41;100739.72;1690486;85;21208;-58
2022/07/17 11:44:13;;;;;;;1.67;1.30;;;;;;;22.46;67.59;100741.16;1690000;84;21209;-59
2022/07/17 11:47:22;;;;;;;2.33;1.32;;;;;;;22.75;67.55;100745.77;1688888;84;21206;-58
2022/07/17 11:50:33;;;;;;;3.33;1.27;;;;;;;22.80;67.00;100744.48;1694518;83;21207;-57
2022/07/17 11:53:42;;;;;;;2.22;1.50;;;;;;;22.84;66.89;100733.96;1690823;85;21215;-57
2022/07/17 11:57:03;;;;;;;2.90;1.45;;;;;;;22.83;66.77;100740.66;1684320;85;21729;-58
2022/07/17 12:00:16;;;;;;;2.98;1.10;;;;;;;22.95;66.76;100738.66;1685737;84;21923;-57
2022/07/17 12:03:33;;;;;;;1.82;1.40;;;;;;;23.17;66.95;100736.02;1689923;84;21249;-58
2022/07/17 12:06:42;;;;;;;2.52;1.50;;;;;;;23.35;66.84;100735.86;1686162;82;21216;-57
2022/07/17 12:09:50;;;;;;;1.77;1.22;;;;;;;23.33;66.45;100740.30;1658773;86;21212;-58
2022/07/17 12:13:12;;;;;;;1.20;1.10;;;;;;;23.21;66.04;100734.44;1665132;86;21402;-58
2022/07/17 12:16:31;;;;;;;1.55;1.30;;;;;;;23.23;65.96;100733.08;1659242;86;21421;-57
2022/07/17 12:19:37;;;;;;;2.10;1.27;;;;;;;23.35;66.02;100738.66;1658965;86;21244;-57
2022/07/17 12:22:52;;;;;;;1.90;1.35;;;;;;;23.41;66.23;100740.44;1676771;85;21242;-58
2022/07/17 12:26:19;;;;;;;1.70;1.30;;;;;;;23.54;66.48;100741.53;1650135;86;21228;-59
2022/07/17 12:29:27;;;;;;;1.98;1.35;;;;;;;23.70;66.45;100742.11;1687375;83;21239;-57
2022/07/17 12:32:35;;;;;;;3.60;1.35;;;;;;;23.76;66.21;100739.69;1676819;85;21258;-57
2022/07/17 12:35:44;;;;;;;1.50;1.07;;;;;;;23.64;65.63;100751.50;1665402;86;21279;-58
2022/07/17 12:38:51;;;;;;;1.22;1.00;;;;;;;23.52;65.35;100749.31;1658481;86;21223;-58
2022/07/17 12:41:59;;;;;;;3.45;1.20;;;;;;;23.39;65.34;100746.81;1680293;85;21729;-57
2022/07/17 12:45:05;;;;;;;1.87;1.60;;;;;;;23.32;65.49;100747.00;1662353;86;21255;-58
2022/07/17 12:48:12;;;;;;;1.40;1.12;;;;;;;23.25;65.46;100744.00;1662061;86;21757;-58
2022/07/17 12:51:22;;;;;;;1.07;0.98;;;;;;;23.30;65.51;100734.36;1670828;85;21295;-58
2022/07/17 12:54:31;;;;;;;1.27;1.12;;;;;;;23.35;65.42;100735.32;1653163;87;21240;-58
2022/07/17 12:57:41;;;;;;;2.25;1.62;;;;;;;23.47;65.43;100738.03;1656369;86;21271;-58
2022/07/17 13:00:52;;;;;;;1.77;1.32;;;;;;;23.57;65.28;100732.09;1652687;86;22228;-57
2022/07/17 13:04:03;;;;;;;3.17;1.47;;;;;;;23.68;65.10;100728.92;1649797;87;21248;-57
2022/07/17 13:07:12;;;;;;;1.60;1.00;;;;;;;23.70;64.84;100722.53;1695023;82;21197;-57
2022/07/17 13:10:22;;;;;;;1.27;0.88;;;;;;;23.72;64.82;100718.08;1677618;84;21297;-57
2022/07/17 13:13:31;;;;;;;1.20;1.00;;;;;;;23.75;64.79;100719.83;1684791;84;21390;-58
2022/07/17 13:16:41;;;;;;;4.22;1.32;;;;;;;23.83;64.82;100716.61;1652542;85;21385;-58
2022/07/17 13:19:51;;;;;;;1.40;0.98;;;;;;;23.89;64.83;100718.38;1667653;85;21252;-58
2022/07/17 13:23:03;;;;;;;0.82;0.82;;;;;;;23.95;64.70;100720.16;1693783;83;21253;-58
2022/07/17 13:26:13;;;;;;;1.02;0.93;;;;;;;24.07;64.64;100720.11;1683380;84;21238;-56
2022/07/17 13:29:26;;;;;;;1.42;0.90;;;;;;;24.19;64.64;100703.52;1700915;84;21204;-58
2022/07/17 13:32:33;;;;;;;2.58;1.10;;;;;;;24.32;64.43;100710.16;1707120;84;21209;-58
2022/07/17 13:35:39;;;;;;;1.62;1.00;;;;;;;24.32;64.03;100711.55;1704355;83;21264;-57
2022/07/17 13:38:45;;;;;;;1.00;0.90;;;;;;;24.20;63.77;100719.19;1691280;83;21288;-57
2022/07/17 13:41:52;;;;;;;1.25;1.00;;;;;;;24.17;63.66;100711.84;1691777;83;21233;-58
2022/07/17 13:44:58;;;;;;;1.35;1.00;;;;;;;24.09;63.36;100709.48;1717596;83;21246;-57
2022/07/17 13:48:04;;;;;;;1.30;0.90;;;;;;;23.95;63.26;100713.70;1684801;83;21200;-56
2022/07/17 13:51:11;;;;;;;2.60;0.80;;;;;;;23.78;63.29;100718.46;1682416;83;21290;-57
2022/07/17 13:54:18;;;;;;;1.95;1.00;;;;;;;23.72;63.41;100710.55;1691360;83;21255;-58
2022/07/17 13:57:27;;;;;;;0.90;0.90;;;;;;;23.86;63.37;100711.05;1658306;83;21596;-57
2022/07/17 14:00:34;;;;;;;1.40;1.05;;;;;;;24.04;63.28;100703.84;1656379;85;21266;-57
2022/07/17 14:03:41;;;;;;;3.08;1.10;;;;;;;24.25;63.22;100703.88;1682790;83;21239;-58
2022/07/17 14:06:47;;;;;;;1.05;0.98;;;;;;;24.44;63.21;100695.48;1659303;83;21330;-58
2022/07/17 14:09:57;;;;;;;1.00;0.90;;;;;;;24.65;63.09;100691.00;1721308;82;21804;-57
2022/07/17 14:13:09;;;;;;;1.42;1.10;;;;;;;24.74;62.90;100694.52;1702183;81;21251;-58
2022/07/17 14:16:17;;;;;;;1.20;1.10;;;;;;;24.79;62.68;100698.78;1713584;81;21231;-58
2022/07/17 14:19:27;;;;;;;1.30;1.05;;;;;;;24.74;62.41;100690.86;1686784;83;21227;-57
2022/07/17 14:22:36;;;;;;;1.10;1.00;;;;;;;24.76;62.40;100680.25;1722096;83;21234;-58
2022/07/17 14:25:44;;;;;;;2.12;1.17;;;;;;;24.76;62.35;100686.70;1724260;83;21255;-57
2022/07/17 14:28:50;;;;;;;2.62;1.27;;;;;;;24.76;62.20;100682.50;1722687;83;21188;-62
2022/07/17 14:31:57;;;;;;;0.80;0.80;;;;;;;24.74;61.99;100683.86;1701365;82;21272;-58
2022/07/17 14:35:04;;;;;;;1.55;1.22;;;;;;;24.68;61.86;100673.70;1714261;81;21790;-59
2022/07/17 14:38:11;;;;;;;2.00;1.10;;;;;;;24.74;61.63;100676.85;1696194;84;21279;-60